Aérodrome :
LOGIN :

S'inscrire | Disclaimer

   EN    FR    IT 

 










Légende :    VFR   VFR Marginal   IFR   IFR Intensif   IFR Très Intensif
Visi : 
Plafond : 
>= 8 km
>= 3000ft
5 à 8 km
1000 à 3000 ft
1500m à 5 km
500 à 1000 ft
800 à 1500m
200 à 500 ft
< 800m
< 200 ft
Symboles :   Orages  Brouillard  Fortes neiges  Fortes précipitations  Vent > 20 kt
SIGMETs :   Divers  Orages  Givrage  Turbulence  Onde Orograph.  Cendres Volcan.







- Altitude de l'aérodrome : 375 ft
- Code IATA : MST


EHBK - Maastricht Aachen

DERNIER METAR :
  • 180655Z AUTO 04005KT 6000 SCT011 OVC028 13/11 Q1023 TEMPO 4000 BR BKN009

METARs EXPIRÉS :
  • 180625Z AUTO 03007KT 8000 OVC013 13/12 Q1022 TEMPO 4000 BR BKN009
  • 180555Z AUTO 03007KT 9000 BKN011 OVC023 13/12 Q1022 TEMPO 4000 BR BKN009
  • 180525Z AUTO 03008KT 7000 FEW009 OVC021 13/12 Q1022 TEMPO 4000 BR
  • 180455Z AUTO 03010KT 8000 FEW009 OVC021 14/12 Q1022 TEMPO 4000 BR
  • 180425Z AUTO 01005KT 8000 OVC016 13/12 Q1022 NOSIG

TAF TAF EHBK
Valide du 18 à 06h jusqu'au 19 à 12h UTC


180509Z 1806/1912 36005KT 6000 BKN016
TEMPO 1806/1811 4000 BR BKN012
PROB40 1806/1811 2000 BKN004
BECMG 1809/1812 03010KT 9999
PROB30 1903/1907 4000 BR BKN006
BECMG 1906/1909 06005KT
Pas de NOTAMs connus pour ce terrain.



MET'MAP, la Météo Aéronautique d'un coup d'oeil ! - Copyright ORBIFLY Décembre 2007 - Disclaimer

ORBIFLY MET'MAP TEAM :

Programmation & Développement : Alexandra Zaïnal
Conception & Développement : Baudouin d'Aumeries
Co-Programmation & Développement : Marc-Olivier Méhu
Soutien technique & logistique : Manuel Goepfert

Contact : metmap@orbifly.com




SOURCES & CREDITS :

   NOAA